Time;durP1;ratioP1;P1;durP2;ratioP2;P2;SDS_P1;SDS_P2;PMS_P1;PMS_P2;Temp;Humidity;BMP_temperature;BMP_pressure;BME280_temperature;BME280_humidity;BME280_pressure;Samples;Min_cycle;Max_cycle;Signal;HPM_P1;HPM_P2
2022/07/16 00:02:31;;;;;;;5.07;1.87;;;16.30;99.90;;;;;;5072304;28;20075;-74
2022/07/16 00:04:58;;;;;;;4.27;1.70;;;16.30;99.90;;;;;;5057213;28;20632;-73
2022/07/16 00:07:24;;;;;;;3.87;1.70;;;16.30;99.90;;;;;;5078505;28;20059;-74
2022/07/16 00:09:50;;;;;;;3.10;1.40;;;16.20;99.90;;;;;;5084353;28;20044;-74
2022/07/16 00:12:16;;;;;;;3.10;1.53;;;16.20;99.90;;;;;;5089244;28;20048;-74
2022/07/16 00:14:42;;;;;;;4.33;1.80;;;16.20;99.90;;;;;;5092288;28;20047;-74
2022/07/16 00:17:07;;;;;;;5.17;2.00;;;16.10;99.90;;;;;;5091222;28;20036;-74
2022/07/16 00:19:33;;;;;;;4.97;1.97;;;16.10;99.90;;;;;;5089742;28;20134;-74
2022/07/16 00:22:00;;;;;;;4.60;1.97;;;16.00;99.90;;;;;;5068234;28;20036;-73
2022/07/16 00:24:26;;;;;;;3.73;1.60;;;16.00;99.90;;;;;;5089370;28;20044;-73
2022/07/16 00:26:52;;;;;;;3.67;1.53;;;15.90;99.90;;;;;;5071728;28;20054;-74
2022/07/16 00:29:19;;;;;;;4.17;1.60;;;15.90;99.90;;;;;;5087864;28;20047;-73
2022/07/16 00:31:45;;;;;;;4.57;2.17;;;15.90;99.90;;;;;;5086809;28;20068;-74
2022/07/16 00:34:12;;;;;;;2.77;1.70;;;15.90;99.90;;;;;;5085184;28;20418;-74
2022/07/16 00:36:39;;;;;;;4.60;1.80;;;15.90;99.90;;;;;;5091962;28;20032;-74
2022/07/16 00:39:08;;;;;;;2.33;1.80;;;15.90;99.90;;;;;;5068279;28;20036;-74
2022/07/16 00:41:35;;;;;;;3.93;1.80;;;15.90;99.90;;;;;;5092620;28;20058;-73
2022/07/16 00:44:03;;;;;;;5.33;2.30;;;15.90;99.90;;;;;;5088221;28;20119;-74
2022/07/16 00:46:29;;;;;;;5.00;2.00;;;16.00;99.90;;;;;;5078778;28;20074;-74
2022/07/16 00:48:55;;;;;;;3.97;2.10;;;16.00;99.90;;;;;;5066057;28;20075;-73
2022/07/16 00:51:23;;;;;;;4.67;2.43;;;16.00;99.90;;;;;;5075469;28;20050;-74
2022/07/16 00:53:49;;;;;;;4.83;1.93;;;16.00;99.90;;;;;;5080046;28;20090;-73
2022/07/16 00:56:16;;;;;;;4.27;2.10;;;16.00;99.90;;;;;;5077971;28;20445;-74
2022/07/16 00:58:44;;;;;;;3.57;2.10;;;16.00;99.90;;;;;;5064794;28;20090;-74
2022/07/16 01:01:10;;;;;;;3.40;2.20;;;16.00;99.90;;;;;;5091415;28;20047;-75
2022/07/16 01:03:37;;;;;;;5.67;2.23;;;16.00;99.90;;;;;;5063112;28;20427;-74
2022/07/16 01:06:04;;;;;;;6.20;2.40;;;16.00;99.90;;;;;;5077326;28;20041;-74
2022/07/16 01:08:31;;;;;;;5.73;2.30;;;16.00;99.90;;;;;;5069503;28;20040;-74
2022/07/16 01:10:58;;;;;;;5.47;2.43;;;16.00;99.90;;;;;;5074640;28;20517;-74
2022/07/16 01:13:25;;;;;;;6.63;2.20;;;16.00;99.90;;;;;;5072359;28;20047;-74
2022/07/16 01:15:51;;;;;;;3.50;2.00;;;16.00;99.90;;;;;;5073871;28;20507;-74
2022/07/16 01:18:17;;;;;;;3.73;2.30;;;16.00;99.90;;;;;;5067751;28;20052;-74
2022/07/16 01:20:43;;;;;;;5.60;2.50;;;16.00;99.90;;;;;;5071701;28;20232;-74
2022/07/16 01:23:09;;;;;;;6.93;2.83;;;16.00;99.90;;;;;;5082671;28;20044;-74
2022/07/16 01:25:36;;;;;;;5.33;2.43;;;16.10;99.90;;;;;;5086481;28;20060;-74
2022/07/16 01:28:02;;;;;;;5.87;2.80;;;16.10;99.90;;;;;;5086371;28;20040;-74
2022/07/16 01:30:28;;;;;;;4.87;2.50;;;16.20;99.90;;;;;;5090045;28;20047;-74
2022/07/16 01:32:53;;;;;;;6.23;2.73;;;16.20;99.90;;;;;;5085623;28;20460;-75
2022/07/16 01:35:19;;;;;;;7.10;2.73;;;16.20;99.90;;;;;;5082782;28;20119;-74
2022/07/16 01:37:45;;;;;;;3.97;2.47;;;16.30;99.90;;;;;;5073533;28;20130;-73
2022/07/16 01:40:11;;;;;;;5.40;3.00;;;16.30;99.90;;;;;;5083890;28;20322;-74
2022/07/16 01:42:38;;;;;;;8.50;3.30;;;16.30;99.90;;;;;;5046590;28;20113;-74
2022/07/16 01:45:04;;;;;;;7.40;3.77;;;16.30;99.90;;;;;;5080967;28;20047;-72
2022/07/16 01:47:30;;;;;;;5.87;4.00;;;16.30;99.90;;;;;;5092571;28;20062;-73
2022/07/16 01:49:56;;;;;;;5.13;3.40;;;16.30;99.90;;;;;;5080430;28;20036;-73
2022/07/16 01:52:22;;;;;;;4.80;2.90;;;16.20;99.90;;;;;;5059142;28;20056;-73
2022/07/16 01:54:50;;;;;;;7.63;3.30;;;16.20;99.90;;;;;;5078410;28;20094;-74
2022/07/16 01:57:16;;;;;;;7.87;3.10;;;16.20;99.90;;;;;;5054744;28;20407;-73
2022/07/16 01:59:44;;;;;;;6.43;2.80;;;16.20;99.90;;;;;;5081616;28;20089;-73
2022/07/16 02:02:11;;;;;;;5.80;3.20;;;16.10;99.90;;;;;;5087123;28;20056;-73
2022/07/16 02:04:37;;;;;;;4.53;2.97;;;16.10;99.90;;;;;;5056559;28;20415;-73
2022/07/16 02:07:03;;;;;;;6.13;3.50;;;16.10;99.90;;;;;;5065170;28;20044;-73
2022/07/16 02:09:29;;;;;;;5.00;3.00;;;16.10;99.90;;;;;;5091767;28;20044;-73
2022/07/16 02:11:55;;;;;;;5.47;3.20;;;16.10;99.90;;;;;;5057920;28;20415;-73
2022/07/16 02:14:21;;;;;;;5.93;3.07;;;16.10;99.90;;;;;;5091573;28;20051;-73
2022/07/16 02:16:49;;;;;;;7.00;3.40;;;16.00;99.90;;;;;;5073956;28;20495;-73
2022/07/16 02:19:14;;;;;;;7.07;3.60;;;16.00;99.90;;;;;;5090086;28;20080;-72
2022/07/16 02:21:40;;;;;;;7.53;3.37;;;16.00;99.90;;;;;;5086071;28;20117;-73
2022/07/16 02:24:06;;;;;;;6.70;3.10;;;15.90;99.90;;;;;;5068366;28;20080;-73
2022/07/16 02:26:32;;;;;;;7.10;3.60;;;15.90;99.90;;;;;;5064225;28;20101;-73
2022/07/16 02:28:57;;;;;;;5.97;3.60;;;15.90;99.90;;;;;;5090228;28;20050;-73
2022/07/16 02:31:23;;;;;;;7.00;4.00;;;15.90;99.90;;;;;;5083224;28;20058;-73
2022/07/16 02:33:50;;;;;;;7.33;4.47;;;15.90;99.90;;;;;;5074944;28;20410;-73
2022/07/16 02:36:16;;;;;;;8.10;4.30;;;15.90;99.90;;;;;;5071958;28;20135;-73
2022/07/16 02:38:42;;;;;;;9.43;4.13;;;15.90;99.90;;;;;;5090842;28;20210;-74
2022/07/16 02:41:07;;;;;;;8.40;4.67;;;15.90;99.90;;;;;;5059194;28;20044;-73
2022/07/16 02:43:33;;;;;;;6.23;3.63;;;15.90;99.90;;;;;;5056985;28;20071;-73
2022/07/16 02:45:59;;;;;;;7.20;4.30;;;15.90;99.90;;;;;;5061932;28;20044;-73
2022/07/16 02:48:25;;;;;;;10.83;4.50;;;15.80;99.90;;;;;;5066058;28;20067;-73
2022/07/16 02:50:52;;;;;;;6.93;3.70;;;15.80;99.90;;;;;;5059273;28;20043;-73
2022/07/16 02:53:17;;;;;;;6.73;3.63;;;15.80;99.90;;;;;;5056942;28;20040;-73
2022/07/16 02:55:43;;;;;;;7.17;4.10;;;15.80;99.90;;;;;;5024143;28;1024028;-73
2022/07/16 02:58:09;;;;;;;7.00;3.60;;;15.80;99.90;;;;;;5085177;28;20086;-73
2022/07/16 03:00:35;;;;;;;7.67;4.20;;;15.70;99.90;;;;;;5074841;28;20047;-73
2022/07/16 03:03:01;;;;;;;8.90;3.50;;;15.70;99.90;;;;;;5074557;28;20070;-73
2022/07/16 03:05:26;;;;;;;6.80;3.03;;;15.70;99.90;;;;;;5090057;28;20447;-73
2022/07/16 03:07:54;;;;;;;5.83;2.90;;;15.70;99.90;;;;;;5068318;28;20040;-73
2022/07/16 03:10:19;;;;;;;4.20;2.67;;;15.70;99.90;;;;;;5074742;28;20048;-73
2022/07/16 03:12:45;;;;;;;10.20;3.07;;;15.70;99.90;;;;;;5037362;28;20048;-73
2022/07/16 03:15:12;;;;;;;6.67;3.03;;;15.70;99.90;;;;;;5065115;28;20097;-73
2022/07/16 03:17:38;;;;;;;6.00;2.40;;;15.70;99.90;;;;;;5090870;28;20043;-73
2022/07/16 03:20:05;;;;;;;9.67;2.90;;;15.70;99.90;;;;;;5074192;28;20036;-72
2022/07/16 03:22:31;;;;;;;5.47;2.87;;;15.70;99.90;;;;;;5082488;28;20036;-73
2022/07/16 03:24:58;;;;;;;5.33;2.33;;;15.70;99.90;;;;;;5068985;28;20632;-73
2022/07/16 03:27:24;;;;;;;9.00;2.33;;;15.70;99.90;;;;;;5072801;28;20047;-73
2022/07/16 03:29:50;;;;;;;7.97;2.73;;;15.70;99.90;;;;;;5090616;28;20048;-73
2022/07/16 03:32:16;;;;;;;8.30;2.57;;;15.70;99.90;;;;;;5090166;28;20039;-73
2022/07/16 03:34:42;;;;;;;6.40;2.10;;;15.60;99.90;;;;;;5073352;28;20044;-73
2022/07/16 03:37:07;;;;;;;8.40;2.27;;;15.60;99.90;;;;;;5066761;28;20393;-73
2022/07/16 03:39:33;;;;;;;4.37;1.90;;;15.60;99.90;;;;;;5074137;28;20075;-73
2022/07/16 03:42:00;;;;;;;5.57;2.20;;;15.60;99.90;;;;;;5074242;28;20122;-73
2022/07/16 03:44:26;;;;;;;7.50;2.33;;;15.60;99.90;;;;;;5073884;28;20055;-73
2022/07/16 03:46:51;;;;;;;9.57;2.20;;;15.50;99.90;;;;;;5077502;28;20047;-73
2022/07/16 03:49:17;;;;;;;6.07;2.00;;;15.50;99.90;;;;;;5063161;28;20045;-73
2022/07/16 03:51:43;;;;;;;5.03;2.20;;;15.40;99.90;;;;;;5036879;28;20044;-73
2022/07/16 03:54:09;;;;;;;6.57;2.00;;;15.40;99.90;;;;;;5056555;28;20048;-73
2022/07/16 03:56:35;;;;;;;8.00;2.20;;;15.30;99.90;;;;;;5073281;28;20051;-73
2022/07/16 03:59:02;;;;;;;6.47;2.00;;;15.20;99.90;;;;;;5078327;28;20213;-73
2022/07/16 04:01:28;;;;;;;3.80;1.93;;;15.20;99.90;;;;;;5053248;28;20052;-74
2022/07/16 04:03:54;;;;;;;9.40;2.10;;;15.10;99.90;;;;;;5082019;28;20476;-73
2022/07/16 04:06:21;;;;;;;6.30;2.20;;;15.10;99.90;;;;;;5064813;28;20051;-73
2022/07/16 04:08:47;;;;;;;4.90;1.87;;;15.10;99.90;;;;;;5073458;28;20079;-73
2022/07/16 04:11:13;;;;;;;8.07;2.20;;;15.00;99.90;;;;;;5090412;28;20545;-73
2022/07/16 04:13:39;;;;;;;7.07;2.20;;;15.00;99.90;;;;;;5082879;28;20036;-73
2022/07/16 04:16:08;;;;;;;7.83;2.40;;;15.00;99.90;;;;;;5063534;28;20039;-74
2022/07/16 04:18:34;;;;;;;4.07;1.90;;;15.00;99.90;;;;;;5040329;28;20446;-73
2022/07/16 04:20:59;;;;;;;5.07;2.03;;;14.90;99.90;;;;;;5073276;28;20054;-74
2022/07/16 04:23:25;;;;;;;7.17;2.10;;;14.90;99.90;;;;;;5073454;28;20044;-73
2022/07/16 04:25:51;;;;;;;5.27;2.00;;;14.90;99.90;;;;;;5067247;28;20044;-73
2022/07/16 04:28:16;;;;;;;8.67;2.30;;;14.80;99.90;;;;;;5087769;28;20048;-73
2022/07/16 04:30:43;;;;;;;5.10;1.80;;;14.80;99.90;;;;;;5089976;28;20048;-73
2022/07/16 04:33:10;;;;;;;5.93;2.20;;;14.80;99.90;;;;;;5088935;28;20086;-73
2022/07/16 04:35:36;;;;;;;7.07;2.17;;;14.80;99.90;;;;;;5071957;28;20531;-73
2022/07/16 04:38:02;;;;;;;7.63;2.30;;;14.80;99.90;;;;;;5081812;28;20090;-75
2022/07/16 04:40:28;;;;;;;8.23;2.20;;;14.70;99.90;;;;;;5056845;28;20414;-73
2022/07/16 04:42:53;;;;;;;5.70;2.17;;;14.70;99.90;;;;;;5072831;28;20051;-73
2022/07/16 04:45:19;;;;;;;7.53;2.20;;;14.80;99.90;;;;;;5064695;28;20101;-74
2022/07/16 04:47:45;;;;;;;7.63;2.20;;;14.70;99.90;;;;;;5089920;28;20491;-74
2022/07/16 04:50:12;;;;;;;6.10;2.00;;;14.70;99.90;;;;;;5072543;28;20044;-73
2022/07/16 04:52:38;;;;;;;10.00;2.40;;;14.70;99.90;;;;;;5068237;28;20419;-72
2022/07/16 04:55:04;;;;;;;6.73;1.90;;;14.70;99.90;;;;;;5071852;28;20044;-73
2022/07/16 04:57:30;;;;;;;8.20;2.60;;;14.70;99.90;;;;;;5072817;28;20039;-73
2022/07/16 04:59:57;;;;;;;7.60;2.17;;;14.70;99.90;;;;;;5059560;28;20070;-73
2022/07/16 05:05:08;;;;;;;6.50;2.27;;;14.80;99.90;;;;;;5093124;28;20047;-73
2022/07/16 05:07:35;;;;;;;8.73;2.03;;;14.70;99.90;;;;;;5093208;28;20097;-75
2022/07/16 05:10:02;;;;;;;7.07;1.80;;;14.90;99.90;;;;;;5092821;28;20132;-72
2022/07/16 05:12:27;;;;;;;7.63;2.10;;;15.10;99.90;;;;;;5089870;28;20463;-73
2022/07/16 05:14:53;;;;;;;8.80;2.70;;;15.20;99.90;;;;;;5057095;28;20123;-75
2022/07/16 05:17:19;;;;;;;6.13;2.20;;;15.30;99.90;;;;;;5074712;28;20048;-74
2022/07/16 05:19:44;;;;;;;10.73;2.20;;;15.30;99.90;;;;;;5062616;28;20502;-73
2022/07/16 05:22:10;;;;;;;9.43;2.13;;;15.30;99.90;;;;;;5070656;28;20450;-73
2022/07/16 05:24:37;;;;;;;6.37;1.80;;;15.20;99.90;;;;;;5076391;28;20050;-73
2022/07/16 05:27:03;;;;;;;7.70;2.03;;;15.20;99.90;;;;;;5069550;28;20043;-72
2022/07/16 05:29:29;;;;;;;6.70;1.90;;;15.20;99.90;;;;;;5074530;28;20032;-74
2022/07/16 05:31:55;;;;;;;7.23;1.90;;;15.30;99.90;;;;;;5093757;28;20105;-74
2022/07/16 05:34:21;;;;;;;11.77;2.33;;;15.40;99.90;;;;;;5075603;28;20093;-73
2022/07/16 05:36:46;;;;;;;11.03;2.00;;;15.40;99.90;;;;;;5093704;28;20063;-72
2022/07/16 05:39:12;;;;;;;11.87;2.00;;;15.40;99.90;;;;;;5075896;28;20082;-74
2022/07/16 05:41:39;;;;;;;7.30;1.70;;;15.40;99.90;;;;;;5093792;28;20083;-73
2022/07/16 05:44:06;;;;;;;6.43;1.57;;;15.40;99.90;;;;;;5084018;28;20040;-73
2022/07/16 05:46:31;;;;;;;9.63;2.17;;;15.30;99.90;;;;;;5075978;28;20384;-74
2022/07/16 05:48:57;;;;;;;11.60;1.90;;;15.30;99.90;;;;;;5055861;28;20044;-73
2022/07/16 05:51:23;;;;;;;7.70;2.43;;;15.30;99.90;;;;;;5057329;28;20066;-74
2022/07/16 05:53:48;;;;;;;7.87;1.90;;;15.30;99.90;;;;;;5072175;28;20046;-73
2022/07/16 05:56:14;;;;;;;9.33;1.80;;;15.30;99.90;;;;;;5057695;28;20051;-73
2022/07/16 05:58:41;;;;;;;9.43;1.77;;;15.40;99.90;;;;;;5056136;28;20048;-73
2022/07/16 06:01:07;;;;;;;8.33;1.60;;;15.40;99.90;;;;;;5042059;28;20061;-73
2022/07/16 06:03:35;;;;;;;7.43;1.50;;;15.50;99.90;;;;;;5045188;28;20131;-73
2022/07/16 06:06:01;;;;;;;8.13;1.60;;;15.50;99.90;;;;;;5092965;28;20418;-73
2022/07/16 06:08:27;;;;;;;7.93;1.70;;;15.60;99.90;;;;;;5039217;28;20037;-73
2022/07/16 06:10:53;;;;;;;8.50;1.80;;;15.70;99.90;;;;;;5072431;28;20052;-74
2022/07/16 06:13:18;;;;;;;6.37;1.50;;;15.80;99.90;;;;;;5075622;28;20047;-73
2022/07/16 06:15:47;;;;;;;6.63;1.70;;;15.90;99.90;;;;;;5041947;28;20043;-73
2022/07/16 06:18:13;;;;;;;7.70;2.07;;;15.90;99.90;;;;;;5075898;28;20418;-72
2022/07/16 06:20:39;;;;;;;4.70;1.20;;;15.90;99.90;;;;;;5075307;28;20048;-74
2022/07/16 06:23:05;;;;;;;7.40;1.57;;;15.90;99.90;;;;;;5075988;28;20056;-73
2022/07/16 06:25:32;;;;;;;8.13;1.60;;;15.90;99.90;;;;;;5075114;28;20050;-73
2022/07/16 06:27:58;;;;;;;4.07;1.13;;;15.90;99.90;;;;;;5056223;28;20040;-73
2022/07/16 06:30:24;;;;;;;7.63;1.60;;;16.00;99.90;;;;;;5074157;28;20052;-71
2022/07/16 06:32:51;;;;;;;8.93;1.77;;;16.00;99.90;;;;;;5075866;28;20052;-74
2022/07/16 06:35:17;;;;;;;6.23;1.20;;;16.00;99.90;;;;;;5091021;28;20527;-74
2022/07/16 06:37:43;;;;;;;4.93;1.37;;;16.00;99.90;;;;;;5083331;28;20044;-74
2022/07/16 06:40:09;;;;;;;5.57;1.30;;;15.90;99.90;;;;;;5076469;28;20055;-72
2022/07/16 06:42:35;;;;;;;5.87;1.50;;;16.00;99.90;;;;;;5087597;28;20032;-73
2022/07/16 06:45:01;;;;;;;5.20;1.00;;;16.00;99.90;;;;;;5078644;28;20044;-72
2022/07/16 06:47:27;;;;;;;6.50;1.40;;;15.90;99.90;;;;;;5055456;28;20047;-74
2022/07/16 06:49:54;;;;;;;8.67;1.47;;;16.00;99.90;;;;;;5062440;28;20048;-75
2022/07/16 06:52:19;;;;;;;9.07;1.60;;;16.00;99.90;;;;;;5055652;28;20461;-73
2022/07/16 06:54:45;;;;;;;5.97;1.47;;;16.00;99.90;;;;;;5051059;28;20032;-73
2022/07/16 06:57:11;;;;;;;5.47;1.13;;;16.00;99.90;;;;;;5091655;28;20047;-74
2022/07/16 06:59:37;;;;;;;4.93;1.00;;;16.10;99.90;;;;;;5092158;28;20422;-73
2022/07/16 07:02:03;;;;;;;5.10;1.60;;;16.20;99.90;;;;;;5094914;28;20083;-73
2022/07/16 07:04:28;;;;;;;6.97;1.30;;;16.30;99.90;;;;;;5073888;28;20048;-75
2022/07/16 07:06:55;;;;;;;7.73;1.27;;;16.40;99.90;;;;;;5060117;28;20499;-75
2022/07/16 07:09:21;;;;;;;9.13;1.83;;;16.40;99.90;;;;;;5093810;28;20047;-73
2022/07/16 07:11:47;;;;;;;9.73;1.60;;;16.40;99.90;;;;;;5075017;28;20040;-72
2022/07/16 07:14:12;;;;;;;9.03;1.50;;;16.40;99.90;;;;;;5071461;28;20138;-74
2022/07/16 07:16:38;;;;;;;6.03;1.20;;;16.30;99.90;;;;;;5068098;28;20044;-74
2022/07/16 07:19:04;;;;;;;6.20;1.63;;;16.30;99.90;;;;;;5086284;28;20134;-71
2022/07/16 07:21:30;;;;;;;6.90;1.60;;;16.20;99.90;;;;;;5082376;28;20040;-74
2022/07/16 07:23:58;;;;;;;8.53;1.37;;;16.20;99.90;;;;;;5064038;28;20102;-73
2022/07/16 07:26:24;;;;;;;6.10;1.17;;;16.40;99.90;;;;;;5066008;28;20072;-73
2022/07/16 07:28:49;;;;;;;7.60;1.20;;;16.50;99.90;;;;;;5081887;28;20060;-73
2022/07/16 07:31:15;;;;;;;5.47;1.27;;;16.50;99.90;;;;;;5073442;28;20048;-73
2022/07/16 07:33:41;;;;;;;8.20;1.43;;;16.60;99.90;;;;;;5091238;28;20044;-74
2022/07/16 07:36:07;;;;;;;6.03;1.30;;;16.70;99.90;;;;;;5074240;28;20527;-74
2022/07/16 07:38:33;;;;;;;5.80;1.20;;;16.70;99.90;;;;;;5088016;28;20411;-73
2022/07/16 07:41:01;;;;;;;6.13;1.00;;;16.80;99.90;;;;;;5070659;28;20040;-73
2022/07/16 07:43:27;;;;;;;6.43;1.00;;;16.80;99.90;;;;;;5076469;28;20495;-74
2022/07/16 07:45:53;;;;;;;5.13;0.90;;;17.00;99.90;;;;;;5073235;28;20047;-74
2022/07/16 07:48:19;;;;;;;6.70;1.20;;;17.30;99.90;;;;;;5065661;28;20059;-73
2022/07/16 07:50:44;;;;;;;5.40;0.90;;;17.40;99.90;;;;;;5045228;28;20503;-73
2022/07/16 07:53:10;;;;;;;4.73;0.80;;;17.70;99.90;;;;;;5071642;28;20101;-73
2022/07/16 07:55:36;;;;;;;5.43;1.17;;;17.70;99.90;;;;;;5064124;28;20047;-73
2022/07/16 07:58:05;;;;;;;3.97;1.40;;;17.70;99.90;;;;;;5083444;28;20093;-72
2022/07/16 08:00:31;;;;;;;7.33;1.30;;;17.60;99.90;;;;;;5077557;28;20471;-73
2022/07/16 08:02:57;;;;;;;7.47;1.27;;;17.60;99.90;;;;;;5078083;28;20098;-73
2022/07/16 08:05:23;;;;;;;10.20;1.37;;;17.60;99.90;;;;;;5088319;28;20424;-73
2022/07/16 08:07:49;;;;;;;3.57;1.00;;;17.50;99.90;;;;;;5050571;28;20495;-72
2022/07/16 08:10:14;;;;;;;5.03;1.20;;;17.60;99.90;;;;;;5060001;28;20096;-74
2022/07/16 08:12:41;;;;;;;5.80;1.17;;;17.70;99.90;;;;;;5064804;28;20155;-74
2022/07/16 08:15:09;;;;;;;6.47;1.50;;;17.70;99.90;;;;;;5067354;28;20064;-75
2022/07/16 08:17:35;;;;;;;4.37;1.07;;;17.60;99.90;;;;;;5086439;28;20119;-73
2022/07/16 08:20:01;;;;;;;7.47;1.20;;;17.60;99.90;;;;;;5060081;28;21148;-71
2022/07/16 08:22:27;;;;;;;7.03;1.30;;;17.60;99.90;;;;;;5085452;28;20052;-74
2022/07/16 08:27:37;;;;;;;3.40;1.00;;;17.80;99.90;;;;;;5066883;28;20086;-73
2022/07/16 08:30:03;;;;;;;6.60;1.40;;;17.90;99.90;;;;;;5076078;28;20044;-76
2022/07/16 08:32:30;;;;;;;4.67;1.00;;;17.90;99.90;;;;;;5049631;28;20472;-71
2022/07/16 08:34:56;;;;;;;4.40;1.20;;;17.90;99.90;;;;;;5066993;28;20044;-74
2022/07/16 08:37:32;;;;;;;4.97;1.33;;;17.90;99.90;;;;;;5081887;28;20084;-73
2022/07/16 08:39:58;;;;;;;3.90;0.90;;;18.00;99.40;;;;;;5080357;28;20126;-73
2022/07/16 08:42:25;;;;;;;6.67;0.97;;;18.10;99.10;;;;;;5084570;28;20478;-74
2022/07/16 08:44:51;;;;;;;4.40;1.00;;;18.20;98.80;;;;;;5087698;28;20036;-74
2022/07/16 08:47:18;;;;;;;3.57;1.03;;;18.30;98.60;;;;;;5066046;28;20058;-72
2022/07/16 08:49:45;;;;;;;6.33;1.13;;;18.40;98.60;;;;;;5095738;28;20044;-71
2022/07/16 08:52:12;;;;;;;4.60;1.23;;;18.50;98.50;;;;;;5073274;28;20047;-74
2022/07/16 08:54:39;;;;;;;3.67;0.80;;;18.70;98.70;;;;;;5062289;28;20479;-74
2022/07/16 08:57:05;;;;;;;7.43;1.40;;;18.90;98.70;;;;;;5075229;28;20040;-72
2022/07/16 08:59:31;;;;;;;4.53;1.10;;;18.80;98.40;;;;;;5083962;28;20070;-72
2022/07/16 09:01:57;;;;;;;3.80;1.17;;;18.70;98.50;;;;;;5090543;28;20550;-75
2022/07/16 09:04:23;;;;;;;4.00;1.00;;;18.60;98.80;;;;;;5064269;28;20124;-73
2022/07/16 09:06:50;;;;;;;5.80;0.97;;;18.70;99.10;;;;;;5065177;28;20044;-73
2022/07/16 09:09:16;;;;;;;5.47;0.93;;;18.70;99.10;;;;;;5080417;28;20039;-72
2022/07/16 09:11:43;;;;;;;5.30;1.20;;;18.80;99.90;;;;;;5087862;28;20291;-73
2022/07/16 09:14:11;;;;;;;4.23;0.83;;;19.00;99.90;;;;;;5069765;28;20044;-72
2022/07/16 09:16:39;;;;;;;4.20;1.00;;;19.20;99.40;;;;;;5070477;28;20142;-74
2022/07/16 09:19:07;;;;;;;4.40;1.13;;;19.40;97.30;;;;;;5058329;28;20904;-72
2022/07/16 09:21:34;;;;;;;5.10;1.07;;;19.60;95.50;;;;;;5085206;28;20094;-74
2022/07/16 09:24:02;;;;;;;8.40;1.60;;;19.60;94.30;;;;;;5067233;28;20422;-73
2022/07/16 09:26:28;;;;;;;6.10;1.17;;;19.70;94.60;;;;;;5086102;28;20059;-73
2022/07/16 09:28:54;;;;;;;5.17;1.20;;;19.80;95.10;;;;;;5059871;28;20040;-73
2022/07/16 09:31:38;;;;;;;2.90;0.80;;;19.80;94.90;;;;;;5078682;28;20129;-73
2022/07/16 09:34:06;;;;;;;;;;;19.70;95.00;;;;;;5082905;28;20044;-75
2022/07/16 09:36:32;;;;;;;7.67;1.30;;;19.70;95.40;;;;;;5077315;28;19935;-74
2022/07/16 09:38:58;;;;;;;4.07;1.10;;;19.80;95.70;;;;;;5066258;28;20050;-73
2022/07/16 09:41:25;;;;;;;4.53;1.10;;;19.90;95.40;;;;;;5068917;28;20036;-75
2022/07/16 09:43:51;;;;;;;6.30;1.50;;;19.90;95.00;;;;;;5064761;28;20341;-74
2022/07/16 09:46:19;;;;;;;4.87;1.17;;;19.80;95.00;;;;;;5099831;28;20054;-75
2022/07/16 09:48:46;;;;;;;7.00;1.20;;;19.80;95.30;;;;;;5057613;28;20123;-73
2022/07/16 09:51:15;;;;;;;6.37;1.27;;;19.70;95.80;;;;;;5084864;28;20062;-73
2022/07/16 09:53:43;;;;;;;7.70;1.30;;;19.80;97.00;;;;;;5048914;28;20040;-75
2022/07/16 09:56:11;;;;;;;4.83;1.33;;;19.80;97.50;;;;;;5056012;28;20079;-74
2022/07/16 09:58:39;;;;;;;6.70;1.60;;;19.90;97.70;;;;;;5088643;28;20123;-73
2022/07/16 10:01:05;;;;;;;7.27;1.50;;;19.90;97.50;;;;;;5075405;28;20057;-74
2022/07/16 10:03:31;;;;;;;8.23;1.57;;;19.90;97.30;;;;;;5061547;28;20036;-74
2022/07/16 10:05:57;;;;;;;5.67;1.30;;;19.90;97.40;;;;;;5058472;28;20445;-74
2022/07/16 10:08:25;;;;;;;9.27;1.40;;;20.10;98.50;;;;;;5093927;28;20522;-72
2022/07/16 10:10:51;;;;;;;5.93;1.23;;;20.60;99.20;;;;;;5097517;28;20040;-73
2022/07/16 10:13:22;;;;;;;5.97;1.20;;;21.30;98.70;;;;;;5094989;28;20047;-75
2022/07/16 10:15:50;;;;;;;7.17;1.30;;;22.10;94.30;;;;;;5079484;28;20415;-74
2022/07/16 10:18:33;;;;;;;7.23;1.23;;;22.70;94.80;;;;;;5058558;28;20512;-73
2022/07/16 10:21:09;;;;;;;6.07;1.23;;;22.80;93.30;;;;;;5060682;28;20499;-75
2022/07/16 10:23:37;;;;;;;4.67;1.30;;;22.40;92.70;;;;;;5056421;28;20040;-74
2022/07/16 10:26:08;;;;;;;4.53;1.17;;;21.90;92.70;;;;;;5059770;28;20047;-75
2022/07/16 10:28:45;;;;;;;6.17;1.53;;;21.60;92.80;;;;;;5055499;28;20041;-74
2022/07/16 10:31:40;;;;;;;4.27;1.10;;;21.30;92.50;;;;;;5055328;28;20048;-73
2022/07/16 10:34:37;;;;;;;5.63;1.33;;;21.10;92.40;;;;;;5071901;28;20412;-74
2022/07/16 10:37:06;;;;;;;4.83;1.40;;;21.40;93.10;;;;;;5073440;28;20047;-74
2022/07/16 10:39:33;;;;;;;6.37;1.40;;;22.00;92.80;;;;;;5065121;28;20036;-74
2022/07/16 10:42:00;;;;;;;6.70;1.57;;;22.50;91.80;;;;;;5058440;28;20127;-73
2022/07/16 10:44:44;;;;;;;2.90;1.00;;;23.00;90.60;;;;;;5075650;28;20051;-75
2022/07/16 10:47:12;;;;;;;;;;;23.40;88.20;;;;;;5094975;28;20071;-74
2022/07/16 10:49:37;;;;;;;3.23;0.90;;;23.50;88.50;;;;;;5075288;28;19927;-73
2022/07/16 10:52:11;;;;;;;4.73;1.03;;;24.00;88.00;;;;;;5091616;28;20040;-71
2022/07/16 10:54:38;;;;;;;5.97;1.05;;;24.50;86.40;;;;;;5060178;28;20032;-74
2022/07/16 10:57:05;;;;;;;4.60;1.13;;;24.40;82.00;;;;;;5042618;28;20474;-74
2022/07/16 10:59:32;;;;;;;7.43;1.58;;;24.00;81.20;;;;;;5041785;28;20047;-75
2022/07/16 11:02:00;;;;;;;7.05;1.30;;;24.00;82.00;;;;;;5074609;28;20075;-75
2022/07/16 11:04:33;;;;;;;6.25;1.30;;;24.00;82.90;;;;;;5084092;28;20040;-74
2022/07/16 11:07:03;;;;;;;4.43;1.20;;;24.30;82.70;;;;;;5065945;28;20044;-72
2022/07/16 11:09:30;;;;;;;7.63;1.55;;;24.70;81.80;;;;;;5054080;28;20048;-74
2022/07/16 11:12:06;;;;;;;5.13;1.00;;;24.90;80.70;;;;;;5054635;28;20574;-73
2022/07/16 11:14:32;;;;;;;7.30;1.42;;;25.20;80.60;;;;;;5071872;28;20479;-75
2022/07/16 11:16:58;;;;;;;5.80;1.55;;;25.50;81.00;;;;;;5054898;28;20052;-73
2022/07/16 11:19:24;;;;;;;6.15;1.30;;;25.80;79.20;;;;;;5065872;28;20040;-74
2022/07/16 11:21:53;;;;;;;4.70;1.27;;;26.00;76.10;;;;;;5087604;28;20094;-75
2022/07/16 11:24:20;;;;;;;6.20;1.30;;;25.70;75.70;;;;;;5078248;28;20052;-73
2022/07/16 11:26:46;;;;;;;5.28;1.00;;;25.40;77.20;;;;;;5073908;28;20117;-74
2022/07/16 11:29:12;;;;;;;7.40;1.20;;;24.90;76.60;;;;;;5075662;28;20460;-71
2022/07/16 11:31:38;;;;;;;5.18;1.30;;;24.90;76.90;;;;;;5075735;28;20048;-74
2022/07/16 11:34:06;;;;;;;5.28;1.52;;;24.90;77.60;;;;;;5073223;28;20047;-73
2022/07/16 11:36:33;;;;;;;4.93;1.30;;;25.20;78.70;;;;;;5095563;28;20044;-75
2022/07/16 11:39:04;;;;;;;7.53;1.40;;;25.10;77.90;;;;;;5081476;28;20034;-74
2022/07/16 11:41:30;;;;;;;4.68;1.20;;;24.80;77.20;;;;;;5054233;28;20044;-75
2022/07/16 11:43:56;;;;;;;5.45;1.50;;;24.30;77.60;;;;;;5056055;28;20044;-75
2022/07/16 11:46:24;;;;;;;6.22;1.48;;;24.30;78.50;;;;;;5083073;28;20040;-74
2022/07/16 11:48:49;;;;;;;7.57;1.50;;;24.30;79.00;;;;;;5090096;28;20097;-73
2022/07/16 11:51:15;;;;;;;6.05;1.20;;;24.30;79.50;;;;;;5058240;28;20044;-73
2022/07/16 11:53:45;;;;;;;6.13;1.40;;;24.40;78.90;;;;;;5088473;28;20078;-72
2022/07/16 11:56:14;;;;;;;6.43;1.17;;;24.50;76.90;;;;;;5059094;28;20093;-72
2022/07/16 11:58:39;;;;;;;5.57;1.40;;;24.90;78.50;;;;;;5056053;28;20044;-73
2022/07/16 12:01:05;;;;;;;3.75;1.00;;;25.20;77.20;;;;;;5072599;28;20047;-75
2022/07/16 12:03:31;;;;;;;7.32;1.30;;;25.50;76.30;;;;;;5094879;28;20119;-74
2022/07/16 12:06:01;;;;;;;5.45;1.00;;;25.10;75.10;;;;;;5077807;28;20040;-77
2022/07/16 12:08:27;;;;;;;5.75;1.10;;;24.60;74.60;;;;;;5095570;28;20088;-75
2022/07/16 12:10:57;;;;;;;6.05;1.25;;;24.20;75.70;;;;;;5093148;28;20410;-75
2022/07/16 12:13:24;;;;;;;4.18;1.20;;;23.80;77.00;;;;;;5077645;28;20503;-74
2022/07/16 12:15:51;;;;;;;4.18;1.10;;;23.50;79.10;;;;;;5094420;28;20056;-72
2022/07/16 12:18:18;;;;;;;4.50;1.05;;;23.70;80.80;;;;;;5077363;28;20028;-75
2022/07/16 12:20:44;;;;;;;4.65;1.45;;;24.20;79.20;;;;;;5093922;28;20039;-75
2022/07/16 12:23:11;;;;;;;7.93;1.23;;;24.60;77.20;;;;;;5094713;28;20044;-77
2022/07/16 12:25:38;;;;;;;8.18;1.15;;;24.90;76.00;;;;;;5077977;28;20070;-76
2022/07/16 12:28:08;;;;;;;4.50;1.42;;;24.70;76.00;;;;;;5071640;28;20044;-73
2022/07/16 12:30:38;;;;;;;4.07;1.20;;;24.30;76.00;;;;;;5062661;28;20086;-75
2022/07/16 12:33:05;;;;;;;5.93;1.70;;;23.80;76.60;;;;;;5079775;28;20570;-73
2022/07/16 12:35:39;;;;;;;4.68;1.20;;;23.50;77.50;;;;;;5063399;28;20052;-73
2022/07/16 12:38:05;;;;;;;5.50;1.20;;;23.50;78.90;;;;;;5083596;28;20036;-74
2022/07/16 12:40:31;;;;;;;3.70;1.10;;;23.90;80.10;;;;;;5063561;28;20556;-75
2022/07/16 12:42:58;;;;;;;3.97;1.13;;;24.50;79.20;;;;;;5088362;28;20036;-75
2022/07/16 12:45:23;;;;;;;5.40;1.05;;;25.00;79.00;;;;;;5065244;28;20097;-74
2022/07/16 12:47:51;;;;;;;4.72;1.10;;;25.40;74.60;;;;;;5056167;28;20048;-72
2022/07/16 12:50:18;;;;;;;5.32;1.63;;;25.70;73.10;;;;;;5076197;28;20115;-73
2022/07/16 12:52:44;;;;;;;3.63;1.30;;;25.60;72.70;;;;;;5077841;28;20135;-75